Time;durP1;ratioP1;P1;durP2;ratioP2;P2;SDS_P1;SDS_P2;PMS_P1;PMS_P2;Temp;Humidity;BMP_temperature;BMP_pressure;BME280_temperature;BME280_humidity;BME280_pressure;Samples;Min_cycle;Max_cycle;Signal;HPM_P1;HPM_P2
2021/03/10 00:00:49;;;;;;;9.47;6.73;;;;;;;4.50;80.98;101941.66;5093668;28;20036;-41
2021/03/10 00:03:15;;;;;;;10.30;6.83;;;;;;;4.49;81.09;101946.19;5093616;28;20030;-41
2021/03/10 00:05:40;;;;;;;10.20;6.60;;;;;;;4.50;81.15;101941.66;5093695;28;20150;-41
2021/03/10 00:08:06;;;;;;;7.97;5.87;;;;;;;4.54;81.09;101948.34;5093574;28;20032;-42
2021/03/10 00:10:31;;;;;;;8.13;6.07;;;;;;;4.57;80.71;101940.81;5093723;28;20020;-41
2021/03/10 00:12:56;;;;;;;6.70;5.47;;;;;;;4.61;80.30;101954.72;5093853;28;20396;-42
2021/03/10 00:15:22;;;;;;;7.90;5.80;;;;;;;4.66;80.39;101952.38;5093862;28;20035;-41
2021/03/10 00:17:47;;;;;;;7.20;5.17;;;;;;;4.61;80.30;101952.88;5093224;28;20068;-41
2021/03/10 00:20:14;;;;;;;8.10;5.53;;;;;;;4.66;80.00;101952.38;5094364;28;20257;-42
2021/03/10 00:22:40;;;;;;;6.47;4.93;;;;;;;4.65;80.47;101956.06;5093423;28;20020;-41
2021/03/10 00:25:07;;;;;;;5.97;4.73;;;;;;;4.67;80.26;101962.09;5094026;28;20050;-41
2021/03/10 00:27:32;;;;;;;5.45;4.60;;;;;;;4.65;80.17;101956.06;5093376;28;20034;-41
2021/03/10 00:30:00;;;;;;;6.05;4.60;;;;;;;4.62;80.06;101959.91;5093653;28;20032;-41
2021/03/10 00:32:27;;;;;;;6.78;4.90;;;;;;;4.64;79.98;101959.75;5092918;28;20552;-41
2021/03/10 00:34:54;;;;;;;7.78;5.40;;;;;;;4.59;79.98;101952.22;5093089;28;20027;-41
2021/03/10 00:37:20;;;;;;;7.43;5.07;;;;;;;4.55;80.27;101940.16;5093051;28;20543;-41
2021/03/10 00:39:47;;;;;;;5.95;4.80;;;;;;;4.54;80.82;101942.97;5093303;28;20434;-41
2021/03/10 00:42:12;;;;;;;6.82;5.07;;;;;;;4.45;80.09;101936.78;5093313;28;20094;-41
2021/03/10 00:44:38;;;;;;;5.78;4.65;;;;;;;4.49;79.94;101937.28;5093872;28;20032;-41
2021/03/10 00:47:04;;;;;;;6.50;4.93;;;;;;;4.45;80.21;101939.47;5093446;28;20518;-41
2021/03/10 00:49:29;;;;;;;7.40;5.47;;;;;;;4.34;80.61;101940.63;5093312;28;20062;-42
2021/03/10 00:51:54;;;;;;;5.03;4.53;;;;;;;4.29;80.20;101950.09;5096502;28;20479;-41
2021/03/10 00:54:20;;;;;;;6.37;5.33;;;;;;;4.25;80.17;101948.78;5097650;28;20036;-41
2021/03/10 00:56:45;;;;;;;6.10;4.67;;;;;;;4.26;80.59;101956.66;5097044;28;20380;-41
2021/03/10 00:59:10;;;;;;;7.57;5.67;;;;;;;4.23;80.71;101956.13;5097545;28;20020;-41
2021/03/10 01:01:36;;;;;;;8.63;5.87;;;;;;;4.19;80.49;101969.00;5096906;28;20043;-39
2021/03/10 01:04:02;;;;;;;8.37;5.33;;;;;;;4.21;81.21;101956.28;5097128;28;20484;-39
2021/03/10 01:06:27;;;;;;;6.45;5.40;;;;;;;4.26;81.07;101951.28;5097289;28;20432;-39
2021/03/10 01:08:52;;;;;;;6.43;5.50;;;;;;;4.26;81.07;101950.47;5097643;28;20150;-39
2021/03/10 01:11:18;;;;;;;6.63;5.57;;;;;;;4.28;80.94;101938.56;5097222;28;20028;-39
2021/03/10 01:13:45;;;;;;;6.03;5.23;;;;;;;4.20;80.44;101940.38;5097321;28;20444;-41
2021/03/10 01:16:10;;;;;;;7.00;5.53;;;;;;;4.13;80.88;101929.47;5096935;28;20728;-41
2021/03/10 01:18:35;;;;;;;7.43;5.93;;;;;;;4.18;80.84;101924.47;5096534;28;20051;-41
2021/03/10 01:21:01;;;;;;;6.47;5.70;;;;;;;4.19;81.00;101926.16;5096878;28;20085;-41
2021/03/10 01:23:27;;;;;;;8.30;6.00;;;;;;;4.17;81.32;101930.00;5097048;28;20035;-41
2021/03/10 01:25:52;;;;;;;8.82;6.32;;;;;;;4.06;81.09;101931.16;5096385;28;20032;-41
2021/03/10 01:28:18;;;;;;;7.67;6.37;;;;;;;4.07;80.93;101930.16;5096444;28;20101;-39
2021/03/10 01:30:43;;;;;;;6.37;5.27;;;;;;;4.07;81.26;101916.75;5096529;28;20024;-41
2021/03/10 01:33:08;;;;;;;6.87;5.40;;;;;;;3.95;80.52;101920.72;5096292;28;20026;-42
2021/03/10 01:35:34;;;;;;;5.43;4.60;;;;;;;4.06;81.66;101912.41;5096843;28;20023;-41
2021/03/10 01:37:59;;;;;;;6.73;5.83;;;;;;;4.00;80.87;101918.38;5095992;28;20039;-41
2021/03/10 01:40:25;;;;;;;7.10;5.73;;;;;;;3.92;80.67;101916.53;5096484;28;20074;-41
2021/03/10 01:42:51;;;;;;;7.50;6.10;;;;;;;3.89;81.06;101916.84;5096060;28;20030;-41
2021/03/10 01:45:16;;;;;;;7.33;5.97;;;;;;;3.81;81.02;101920.34;5096343;28;20035;-41
2021/03/10 01:47:46;;;;;;;7.40;5.57;;;;;;;3.76;80.73;101917.31;5096077;28;20024;-41
2021/03/10 01:50:16;;;;;;;7.50;6.03;;;;;;;3.76;81.38;101916.47;5095968;28;20464;-41
2021/03/10 01:52:41;;;;;;;5.55;4.47;;;;;;;3.83;81.42;101915.66;5095886;28;20059;-41
2021/03/10 01:55:07;;;;;;;5.87;5.27;;;;;;;3.80;80.86;101907.94;5095910;28;20507;-42
2021/03/10 01:57:33;;;;;;;6.45;5.13;;;;;;;3.82;80.89;101907.81;5095817;28;20392;-42
2021/03/10 01:59:59;;;;;;;7.72;5.78;;;;;;;3.81;80.58;101908.81;5096548;28;20032;-41
2021/03/10 02:02:24;;;;;;;9.40;6.07;;;;;;;3.75;80.94;101909.41;5095045;28;20031;-42
2021/03/10 02:04:50;;;;;;;8.10;5.50;;;;;;;3.72;80.88;101915.94;5096513;28;20080;-41
2021/03/10 02:07:25;;;;;;;8.52;6.03;;;;;;;3.71;81.45;101914.28;5095635;28;20024;-41
2021/03/10 02:10:02;;;;;;;6.57;5.57;;;;;;;3.73;80.84;101911.44;5095683;28;20028;-41
2021/03/10 02:12:30;;;;;;;6.78;5.70;;;;;;;3.71;81.29;101910.72;5095797;28;20036;-41
2021/03/10 02:15:04;;;;;;;6.63;5.22;;;;;;;3.75;81.42;101910.25;5095515;28;20054;-41
2021/03/10 02:17:36;;;;;;;6.72;5.95;;;;;;;3.74;81.56;101907.75;5095782;28;20483;-41
2021/03/10 02:20:25;;;;;;;7.30;6.43;;;;;;;3.75;80.96;101910.25;5095411;28;20030;-41
2021/03/10 02:23:16;;;;;;;8.55;6.97;;;;;;;3.75;81.20;101904.06;5095880;28;20115;-39
2021/03/10 02:26:00;;;;;;;6.80;6.10;;;;;;;3.72;81.56;101899.91;5095539;28;20012;-39
2021/03/10 02:28:26;;;;;;;8.40;6.63;;;;;;;3.70;81.57;101901.88;5095247;28;20028;-39
2021/03/10 02:30:54;;;;;;;8.55;7.13;;;;;;;3.67;81.70;101891.50;5095735;28;20059;-39
2021/03/10 02:33:29;;;;;;;8.95;7.20;;;;;;;3.75;82.08;101888.03;5095393;28;20095;-39
2021/03/10 02:36:02;;;;;;;8.63;6.82;;;;;;;3.76;82.00;101892.41;5095587;28;20034;-39
2021/03/10 02:38:28;;;;;;;8.93;7.18;;;;;;;3.79;82.08;101882.19;5095892;28;20032;-39
2021/03/10 02:40:55;;;;;;;;;;;;;;;3.89;81.19;101884.72;5095714;28;20332;-41
2021/03/10 02:43:22;;;;;;;10.15;6.90;;;;;;;3.89;82.23;101890.09;5095463;28;19908;-41
2021/03/10 02:45:49;;;;;;;8.88;7.15;;;;;;;3.90;82.81;101885.56;5095715;28;20021;-41
2021/03/10 02:48:16;;;;;;;11.65;8.07;;;;;;;3.92;82.71;101888.94;5095064;28;20422;-41
2021/03/10 02:50:42;;;;;;;9.85;7.93;;;;;;;3.93;82.28;101893.28;5094732;28;20020;-41
2021/03/10 02:53:08;;;;;;;9.25;8.25;;;;;;;3.94;81.98;101890.44;5094744;28;20063;-41
2021/03/10 02:55:38;;;;;;;9.80;8.75;;;;;;;3.94;82.14;101893.13;5095566;28;20107;-41
2021/03/10 02:58:03;;;;;;;11.27;8.95;;;;;;;3.93;82.13;101891.44;5094921;28;20031;-41
2021/03/10 03:00:30;;;;;;;10.40;8.00;;;;;;;3.91;81.87;101877.41;5094899;28;20384;-41
2021/03/10 03:02:55;;;;;;;10.13;8.45;;;;;;;3.95;82.00;101883.25;5094800;28;20059;-41
2021/03/10 03:05:21;;;;;;;11.27;9.30;;;;;;;3.97;82.02;101881.25;5094977;28;20131;-42
2021/03/10 03:07:47;;;;;;;9.73;8.33;;;;;;;4.01;82.14;101883.44;5094168;28;20024;-41
2021/03/10 03:10:25;;;;;;;11.20;9.15;;;;;;;4.03;82.36;101875.25;5094976;28;20028;-41
2021/03/10 03:12:51;;;;;;;10.48;9.00;;;;;;;4.05;81.81;101882.13;5094630;28;20495;-39
2021/03/10 03:15:18;;;;;;;;;;;;;;;4.13;81.25;101873.28;5093837;28;20065;-39
2021/03/10 03:17:45;;;;;;;10.77;8.90;;;;;;;4.10;81.88;101877.13;5093986;28;19908;-39
2021/03/10 03:20:12;;;;;;;10.35;8.30;;;;;;;4.12;81.63;101869.75;5094248;28;20020;-39
2021/03/10 03:22:53;;;;;;;11.02;8.85;;;;;;;4.08;81.94;101867.56;5094186;28;20120;-42
2021/03/10 03:25:23;;;;;;;12.18;9.27;;;;;;;4.08;81.94;101868.41;5094734;28;20032;-41
2021/03/10 03:27:53;;;;;;;11.82;9.70;;;;;;;4.02;82.01;101853.00;5094443;28;20031;-41
2021/03/10 03:30:20;;;;;;;11.30;9.30;;;;;;;4.07;82.19;101844.47;5094101;28;20035;-41
2021/03/10 03:32:46;;;;;;;12.05;10.23;;;;;;;4.00;82.03;101851.47;5093892;28;20103;-41
2021/03/10 03:35:15;;;;;;;12.75;9.85;;;;;;;4.03;82.14;101843.97;5094804;28;20038;-39
2021/03/10 03:37:41;;;;;;;12.13;9.95;;;;;;;3.99;81.74;101847.97;5093950;28;20026;-41
2021/03/10 03:40:09;;;;;;;14.05;10.38;;;;;;;4.07;82.37;101847.16;5094556;28;20373;-41
2021/03/10 03:42:34;;;;;;;13.02;9.32;;;;;;;4.13;82.13;101846.50;5094083;28;20043;-41
2021/03/10 03:45:00;;;;;;;12.45;9.77;;;;;;;4.14;82.30;101840.13;5093904;28;20472;-41
2021/03/10 03:47:26;;;;;;;13.93;10.90;;;;;;;4.11;82.42;101835.13;5093569;28;20474;-41
2021/03/10 03:49:51;;;;;;;14.43;11.30;;;;;;;4.05;82.05;101841.13;5094402;28;20813;-39
2021/03/10 03:52:16;;;;;;;15.23;11.10;;;;;;;4.03;82.22;101830.59;5093743;28;20036;-39
2021/03/10 03:54:42;;;;;;;13.83;10.27;;;;;;;4.06;82.34;101826.75;5093805;28;20027;-40
2021/03/10 03:57:08;;;;;;;15.90;11.57;;;;;;;4.03;82.31;101830.59;5093745;28;20108;-41
2021/03/10 03:59:34;;;;;;;12.65;10.52;;;;;;;4.01;82.16;101827.25;5094035;28;20028;-40
2021/03/10 04:02:00;;;;;;;16.17;11.27;;;;;;;3.99;82.13;101828.41;5093397;28;20164;-40
2021/03/10 04:04:25;;;;;;;14.25;11.02;;;;;;;3.94;82.49;101831.56;5093448;28;20055;-40
2021/03/10 04:06:51;;;;;;;19.33;11.90;;;;;;;3.85;82.46;101832.53;5093302;28;20039;-40
2021/03/10 04:09:17;;;;;;;16.15;11.70;;;;;;;3.86;82.60;101835.06;5094464;28;20024;-40
2021/03/10 04:11:44;;;;;;;16.20;12.52;;;;;;;3.76;82.67;101839.72;5094022;28;20038;-40
2021/03/10 04:14:09;;;;;;;17.23;13.07;;;;;;;3.79;83.09;101828.69;5092519;28;20067;-40
2021/03/10 04:16:35;;;;;;;15.38;11.70;;;;;;;3.79;82.97;101820.66;5093477;28;20032;-41
2021/03/10 04:19:00;;;;;;;18.17;13.18;;;;;;;3.76;83.39;101829.03;5094321;28;20115;-40
2021/03/10 04:21:26;;;;;;;19.47;12.27;;;;;;;3.80;82.87;101827.66;5093455;28;20028;-40
2021/03/10 04:23:51;;;;;;;16.63;12.03;;;;;;;3.71;83.17;101827.81;5093819;28;20028;-40
2021/03/10 04:26:16;;;;;;;16.90;13.03;;;;;;;3.67;83.00;101824.63;5096074;28;20072;-40
2021/03/10 04:28:42;;;;;;;14.77;11.60;;;;;;;3.71;83.60;101819.78;5097586;28;20045;-40
2021/03/10 04:31:07;;;;;;;16.87;13.90;;;;;;;3.60;83.44;101826.28;5097463;28;20025;-41
2021/03/10 04:33:32;;;;;;;18.30;12.83;;;;;;;3.56;83.27;101827.59;5096094;28;20181;-40
2021/03/10 04:35:58;;;;;;;16.83;12.60;;;;;;;3.57;83.21;101821.25;5097750;28;20115;-40
2021/03/10 04:38:23;;;;;;;16.37;12.37;;;;;;;3.59;83.96;101825.44;5097429;28;20035;-40
2021/03/10 04:40:48;;;;;;;14.77;12.10;;;;;;;3.60;83.69;101828.94;5097372;28;20024;-40
2021/03/10 04:43:13;;;;;;;19.67;14.43;;;;;;;3.58;83.49;101844.31;5097010;28;20028;-41
2021/03/10 04:45:39;;;;;;;13.43;10.43;;;;;;;3.66;84.18;101838.16;5097892;28;20031;-42
2021/03/10 04:48:04;;;;;;;16.23;12.63;;;;;;;3.60;83.75;101835.13;5095709;28;20024;-42
2021/03/10 04:50:30;;;;;;;18.65;13.07;;;;;;;3.56;83.16;101841.81;5097417;28;20095;-42
2021/03/10 04:52:55;;;;;;;18.97;14.50;;;;;;;3.56;83.83;101835.59;5097365;28;20031;-42
2021/03/10 04:55:20;;;;;;;19.40;13.13;;;;;;;3.57;84.37;101838.13;5097433;28;20372;-42
2021/03/10 04:57:46;;;;;;;18.07;13.40;;;;;;;3.51;84.29;101840.59;5096782;28;20028;-42
2021/03/10 05:00:11;;;;;;;17.73;13.00;;;;;;;3.56;84.18;101841.81;5097521;28;20031;-41
2021/03/10 05:02:38;;;;;;;21.52;14.65;;;;;;;3.55;84.54;101836.63;5097254;28;20028;-41
2021/03/10 05:05:04;;;;;;;;;;;;;;;3.60;83.55;101839.63;5097002;28;20044;-41
2021/03/10 05:07:29;;;;;;;22.67;15.88;;;;;;;3.50;84.02;101838.94;5097323;28;19921;-41
2021/03/10 05:09:54;;;;;;;21.33;16.00;;;;;;;3.48;84.88;101830.25;5097125;28;20376;-40
2021/03/10 05:12:20;;;;;;;25.90;18.70;;;;;;;3.46;85.85;101835.72;5096686;28;20124;-40
2021/03/10 05:14:45;;;;;;;32.03;21.07;;;;;;;3.52;85.45;101828.94;5097502;28;20020;-41
2021/03/10 05:17:10;;;;;;;31.83;19.27;;;;;;;3.54;85.86;101821.56;5096931;28;20474;-40
2021/03/10 05:19:36;;;;;;;29.90;21.30;;;;;;;3.48;86.53;101830.25;5097504;28;20024;-45
2021/03/10 05:22:01;;;;;;;31.53;22.20;;;;;;;3.49;86.81;101831.91;5096306;28;20051;-40
2021/03/10 05:24:27;;;;;;;36.43;24.57;;;;;;;3.49;86.17;101835.41;5096633;28;20491;-41
2021/03/10 05:26:52;;;;;;;32.80;22.50;;;;;;;3.50;85.77;101828.22;5096213;28;20385;-40
2021/03/10 05:29:18;;;;;;;36.90;23.17;;;;;;;3.51;86.13;101827.22;5096726;28;20032;-40
2021/03/10 05:31:43;;;;;;;33.17;23.00;;;;;;;3.55;86.48;101818.72;5096308;28;20536;-40
2021/03/10 05:34:08;;;;;;;34.13;24.27;;;;;;;3.56;86.53;101808.84;5097185;28;20048;-40
2021/03/10 05:36:41;;;;;;;36.23;25.20;;;;;;;3.51;86.80;101806.66;5095757;28;20063;-40
2021/03/10 05:39:06;;;;;;;43.83;28.60;;;;;;;3.53;87.25;101811.88;5096633;28;20032;-40
2021/03/10 05:41:32;;;;;;;37.30;26.87;;;;;;;3.51;87.77;101814.69;5095901;28;20036;-40
2021/03/10 05:43:58;;;;;;;45.50;28.97;;;;;;;3.51;87.59;101811.19;5096719;28;20074;-41
2021/03/10 05:46:24;;;;;;;48.15;30.55;;;;;;;3.48;88.02;101816.88;5096564;28;20063;-41
2021/03/10 05:48:51;;;;;;;42.78;28.92;;;;;;;3.49;87.96;101819.38;5096634;28;20020;-40
2021/03/10 05:51:18;;;;;;;43.05;29.73;;;;;;;3.48;87.53;101812.34;5095845;28;20035;-40
2021/03/10 05:53:44;;;;;;;44.53;30.58;;;;;;;3.52;88.15;101824.41;5096359;28;20069;-41
2021/03/10 05:56:10;;;;;;;41.40;30.10;;;;;;;3.53;88.19;101825.25;5095858;28;20062;-40
2021/03/10 05:58:35;;;;;;;47.38;30.90;;;;;;;3.55;87.37;101829.44;5095400;28;20110;-40
2021/03/10 06:01:01;;;;;;;43.20;29.60;;;;;;;3.59;87.38;101824.59;5096286;28;20090;-40
2021/03/10 06:03:26;;;;;;;48.37;32.20;;;;;;;3.55;87.28;101834.78;5096047;28;20039;-40
2021/03/10 06:06:02;;;;;;;49.00;34.37;;;;;;;3.56;88.34;101828.44;5096074;28;20083;-40
2021/03/10 06:08:35;;;;;;;44.17;31.00;;;;;;;3.57;88.23;101835.47;5095771;28;20110;-40
2021/03/10 06:11:01;;;;;;;42.08;28.55;;;;;;;3.63;88.34;101823.28;5096396;28;20060;-41
2021/03/10 06:13:31;;;;;;;48.22;32.38;;;;;;;3.57;88.12;101827.44;5095290;28;20016;-41
2021/03/10 06:15:58;;;;;;;52.55;34.13;;;;;;;3.54;88.06;101821.56;5095853;28;20056;-40
2021/03/10 06:18:35;;;;;;;48.47;33.70;;;;;;;3.55;88.12;101831.25;5095436;28;20116;-40
2021/03/10 06:21:03;;;;;;;44.15;30.63;;;;;;;3.57;88.45;101816.75;5096161;28;20076;-40
2021/03/10 06:23:28;;;;;;;54.42;36.05;;;;;;;3.56;88.85;101824.91;5093735;28;20064;-40
2021/03/10 06:25:54;;;;;;;52.47;34.57;;;;;;;3.55;88.26;101817.88;5095930;28;20060;-41
2021/03/10 06:28:19;;;;;;;44.60;30.85;;;;;;;3.59;87.91;101808.56;5094981;28;20525;-40
2021/03/10 06:30:48;;;;;;;47.73;34.90;;;;;;;3.59;88.09;101806.72;5095403;28;20376;-40
2021/03/10 06:33:21;;;;;;;52.50;36.05;;;;;;;3.58;88.67;101809.56;5095014;28;20028;-40
2021/03/10 06:35:46;;;;;;;46.30;32.58;;;;;;;3.59;88.07;101804.03;5095056;28;20024;-40
2021/03/10 06:38:14;;;;;;;53.63;34.97;;;;;;;3.61;88.79;101806.53;5095016;28;20039;-40
2021/03/10 06:40:56;;;;;;;50.00;34.03;;;;;;;3.61;88.68;101806.53;5095240;28;20084;-40
2021/03/10 06:43:36;;;;;;;49.83;35.45;;;;;;;3.65;88.32;101804.38;5094919;28;20035;-40
2021/03/10 06:46:16;;;;;;;50.03;34.63;;;;;;;3.66;88.01;101803.38;5095754;28;20376;-40
2021/03/10 06:49:00;;;;;;;51.22;33.30;;;;;;;3.66;88.30;101796.22;5094309;28;20383;-40
2021/03/10 06:51:27;;;;;;;47.33;33.13;;;;;;;3.69;88.12;101800.41;5094784;28;20038;-40
2021/03/10 06:53:53;;;;;;;49.22;33.20;;;;;;;3.74;87.86;101795.38;5095597;28;20024;-40
2021/03/10 06:56:25;;;;;;;46.88;33.08;;;;;;;3.72;87.99;101797.41;5094802;28;20470;-40
2021/03/10 06:58:55;;;;;;;46.28;33.13;;;;;;;3.70;87.85;101794.03;5094637;28;20059;-40
2021/03/10 07:01:21;;;;;;;50.33;34.70;;;;;;;3.72;88.21;101798.25;5094684;28;20065;-41
2021/03/10 07:03:48;;;;;;;47.58;34.03;;;;;;;3.73;87.68;101804.41;5094230;28;20067;-40
2021/03/10 07:06:16;;;;;;;45.92;32.05;;;;;;;3.74;88.05;101800.75;5094805;28;20051;-40
2021/03/10 07:08:45;;;;;;;45.65;32.53;;;;;;;3.78;87.55;101794.06;5094381;28;20126;-40
2021/03/10 07:11:12;;;;;;;45.05;31.58;;;;;;;3.81;87.69;101791.91;5094410;28;20036;-41
2021/03/10 07:13:38;;;;;;;47.25;32.50;;;;;;;3.83;87.52;101803.28;5094373;28;20107;-40
2021/03/10 07:16:04;;;;;;;43.83;32.35;;;;;;;3.83;87.14;101803.28;5094854;28;20436;-40
2021/03/10 07:18:30;;;;;;;45.35;32.65;;;;;;;3.86;87.28;101805.63;5094265;28;20020;-40
2021/03/10 07:20:57;;;;;;;45.53;32.05;;;;;;;3.88;87.69;101806.28;5094534;28;20115;-40
2021/03/10 07:23:25;;;;;;;42.58;31.48;;;;;;;3.91;87.55;101812.34;5094729;28;20089;-40
2021/03/10 07:25:52;;;;;;;46.65;33.42;;;;;;;3.91;87.64;101817.69;5093570;28;20040;-40
2021/03/10 07:28:20;;;;;;;48.38;33.40;;;;;;;3.94;87.04;101812.00;5094413;28;20074;-41
2021/03/10 07:30:48;;;;;;;44.53;31.58;;;;;;;3.93;87.15;101813.00;5094560;28;20028;-40
2021/03/10 07:33:19;;;;;;;51.90;33.80;;;;;;;3.95;86.86;101811.00;5094807;28;20036;-40
2021/03/10 07:35:50;;;;;;;46.78;31.85;;;;;;;3.99;87.15;101804.31;5094088;28;20020;-40
2021/03/10 07:38:16;;;;;;;45.90;31.75;;;;;;;3.99;87.01;101809.66;5094496;28;20413;-40
2021/03/10 07:40:56;;;;;;;49.47;32.75;;;;;;;4.00;87.50;101808.66;5094217;28;20111;-40
2021/03/10 07:43:35;;;;;;;46.92;30.02;;;;;;;4.00;87.06;101806.84;5094743;28;20028;-40
2021/03/10 07:46:00;;;;;;;39.10;27.48;;;;;;;4.12;87.46;101802.00;5094140;28;20086;-40
2021/03/10 07:48:31;;;;;;;40.17;29.73;;;;;;;4.08;87.35;101809.50;5093853;28;20055;-40
2021/03/10 07:50:57;;;;;;;47.60;31.02;;;;;;;4.10;87.23;101809.38;5092588;28;20059;-40
2021/03/10 07:53:22;;;;;;;41.63;30.43;;;;;;;4.16;87.11;101808.69;5093542;28;20060;-40
2021/03/10 07:55:48;;;;;;;41.83;29.03;;;;;;;4.18;86.76;101797.81;5094648;28;20442;-40
2021/03/10 07:58:28;;;;;;;46.45;29.92;;;;;;;4.19;86.74;101800.31;5093359;28;20027;-40
2021/03/10 08:00:53;;;;;;;41.65;28.83;;;;;;;4.23;87.11;101796.31;5093374;28;20391;-41
2021/03/10 08:03:30;;;;;;;42.37;30.97;;;;;;;4.25;86.67;101797.00;5093686;28;20152;-40
2021/03/10 08:06:05;;;;;;;44.22;29.00;;;;;;;4.26;86.95;101801.34;5094473;28;20055;-41
2021/03/10 08:08:35;;;;;;;46.78;31.83;;;;;;;4.27;87.09;101805.69;5093603;28;20024;-40
2021/03/10 08:11:18;;;;;;;39.85;29.40;;;;;;;4.32;86.89;101794.50;5094043;28;20020;-40
2021/03/10 08:13:44;;;;;;;45.13;31.67;;;;;;;4.32;86.63;101797.16;5094075;28;20051;-40
2021/03/10 08:16:11;;;;;;;40.40;29.55;;;;;;;4.37;86.97;101803.69;5093439;28;20032;-40
2021/03/10 08:18:44;;;;;;;44.88;30.33;;;;;;;4.41;86.38;101806.03;5093382;28;20024;-41
2021/03/10 08:21:12;;;;;;;43.40;31.08;;;;;;;4.45;86.69;101807.38;5093847;28;20090;-40
2021/03/10 08:23:38;;;;;;;41.40;28.40;;;;;;;4.51;86.35;101804.03;5093371;28;20093;-40
2021/03/10 08:26:05;;;;;;;43.13;29.05;;;;;;;4.57;86.14;101814.06;5093134;28;20032;-40
2021/03/10 08:28:40;;;;;;;39.83;29.08;;;;;;;4.61;86.02;101810.88;5093645;28;20032;-41
2021/03/10 08:31:09;;;;;;;37.63;27.90;;;;;;;4.68;86.12;101811.03;5093928;28;20021;-40
2021/03/10 08:33:54;;;;;;;41.00;29.70;;;;;;;4.74;85.68;101805.03;5093885;28;20085;-40
2021/03/10 08:36:31;;;;;;;37.35;27.00;;;;;;;4.77;85.72;101802.00;5093023;28;20416;-40
2021/03/10 08:38:57;;;;;;;45.40;30.58;;;;;;;4.79;85.49;101808.03;5093591;28;20111;-40
2021/03/10 08:41:22;;;;;;;45.03;29.45;;;;;;;4.80;85.57;101799.00;5093838;28;20060;-40
2021/03/10 08:43:47;;;;;;;40.27;29.30;;;;;;;4.87;85.21;101799.97;5093315;28;20032;-40
2021/03/10 08:46:13;;;;;;;39.53;29.30;;;;;;;4.90;84.89;101794.28;5093372;28;20021;-40
2021/03/10 08:48:38;;;;;;;38.93;28.70;;;;;;;4.98;84.99;101790.75;5093261;28;20047;-41
2021/03/10 08:51:04;;;;;;;41.13;28.83;;;;;;;5.05;84.96;101794.41;5093246;28;20028;-41
2021/03/10 08:53:30;;;;;;;;;;;;;;;5.16;84.69;101786.00;5093621;28;20035;-40
2021/03/10 08:56:05;;;;;;;34.13;27.20;;;;;;;5.17;85.12;101778.78;5092985;28;20346;-40
2021/03/10 08:58:30;;;;;;;38.05;28.25;;;;;;;5.22;84.05;101784.50;5093463;28;20020;-40
2021/03/10 09:00:55;;;;;;;42.23;28.33;;;;;;;5.26;84.52;101785.78;5093748;28;20540;-40
2021/03/10 09:03:21;;;;;;;40.97;28.70;;;;;;;5.29;84.02;101782.78;5093150;28;20085;-40
2021/03/10 09:05:49;;;;;;;40.63;28.13;;;;;;;5.36;83.60;101782.91;5093327;28;20044;-40
2021/03/10 09:08:17;;;;;;;39.25;28.23;;;;;;;5.46;83.85;101786.22;5091792;28;20081;-40
2021/03/10 09:10:49;;;;;;;40.47;28.38;;;;;;;5.48;83.02;101781.53;5093224;28;20450;-40
2021/03/10 09:13:14;;;;;;;36.00;27.30;;;;;;;5.51;83.00;101781.16;5096822;28;20119;-41
2021/03/10 09:15:40;;;;;;;36.95;26.80;;;;;;;5.55;83.06;101777.13;5096788;28;20103;-40
2021/03/10 09:18:07;;;;;;;38.37;26.10;;;;;;;5.60;82.89;101772.06;5096383;28;20024;-41
2021/03/10 09:20:35;;;;;;;36.20;27.95;;;;;;;5.60;82.99;101768.53;5097409;28;20020;-41
2021/03/10 09:23:01;;;;;;;37.97;26.52;;;;;;;5.63;81.96;101762.84;5096553;28;20056;-40
2021/03/10 09:25:32;;;;;;;37.42;27.55;;;;;;;5.67;82.04;101756.13;5096617;28;20028;-40
2021/03/10 09:28:10;;;;;;;34.08;26.77;;;;;;;5.69;82.22;101746.03;5097362;28;20420;-41
2021/03/10 09:30:38;;;;;;;36.20;26.75;;;;;;;5.74;82.39;101757.06;5097235;28;20419;-40
2021/03/10 09:33:04;;;;;;;34.75;26.05;;;;;;;5.78;81.82;101754.88;5096158;28;20032;-40
2021/03/10 09:35:36;;;;;;;36.38;24.70;;;;;;;5.83;81.43;101753.31;5096094;28;20028;-41
2021/03/10 09:38:04;;;;;;;32.83;25.38;;;;;;;5.85;81.08;101743.22;5096181;28;20111;-40
2021/03/10 09:40:44;;;;;;;35.15;24.42;;;;;;;5.90;80.81;101743.56;5095981;28;20058;-40
2021/03/10 09:43:25;;;;;;;36.67;25.15;;;;;;;5.95;80.82;101740.34;5096552;28;20028;-40
2021/03/10 09:46:05;;;;;;;34.60;24.88;;;;;;;5.98;81.12;101741.84;5096440;28;20114;-40
2021/03/10 09:48:40;;;;;;;34.72;25.50;;;;;;;6.06;81.27;101739.13;5096078;28;20468;-41
2021/03/10 09:51:15;;;;;;;36.00;24.95;;;;;;;6.11;80.96;101729.50;5095654;28;20085;-41
2021/03/10 09:53:47;;;;;;;32.15;24.38;;;;;;;6.17;80.81;101733.31;5095997;28;20035;-41
2021/03/10 09:56:15;;;;;;;29.73;23.55;;;;;;;6.24;80.18;101720.81;5095938;28;20028;-40
2021/03/10 09:58:48;;;;;;;34.05;23.58;;;;;;;6.23;79.02;101729.06;5095854;28;20119;-40
2021/03/10 10:01:13;;;;;;;29.30;23.30;;;;;;;6.21;78.34;101731.09;5096314;28;20067;-40
2021/03/10 10:03:39;;;;;;;33.87;24.47;;;;;;;6.25;78.69;101719.81;5095753;28;20089;-40
2021/03/10 10:06:06;;;;;;;35.10;23.67;;;;;;;6.26;77.59;101721.50;5095871;28;20524;-40
2021/03/10 10:08:34;;;;;;;36.70;24.13;;;;;;;6.34;78.19;101720.56;5095583;28;20032;-40
2021/03/10 10:11:00;;;;;;;33.50;23.88;;;;;;;6.37;77.26;101718.34;5095846;28;20028;-40
2021/03/10 10:13:25;;;;;;;29.67;23.42;;;;;;;6.43;78.78;101706.88;5095670;28;20035;-40
2021/03/10 10:15:50;;;;;;;37.30;25.10;;;;;;;6.45;77.05;101710.22;5095845;28;20491;-40
2021/03/10 10:18:15;;;;;;;30.43;22.40;;;;;;;6.50;77.03;101711.53;5095767;28;20039;-40
2021/03/10 10:20:41;;;;;;;25.60;20.73;;;;;;;6.56;76.39;101710.81;5096534;28;20032;-40
2021/03/10 10:23:06;;;;;;;31.33;22.20;;;;;;;6.60;75.94;101709.41;5095370;28;20028;-40
2021/03/10 10:25:33;;;;;;;29.23;22.00;;;;;;;6.65;75.96;101713.22;5095374;28;20108;-40
2021/03/10 10:27:58;;;;;;;26.50;20.70;;;;;;;6.75;75.80;101704.88;5094831;28;20028;-41
2021/03/10 10:30:23;;;;;;;30.37;20.77;;;;;;;6.86;75.22;101709.78;5095600;28;20036;-41
2021/03/10 10:32:50;;;;;;;27.83;20.00;;;;;;;6.90;73.45;101694.97;5094889;28;20059;-40
2021/03/10 10:35:16;;;;;;;27.25;19.55;;;;;;;7.04;73.83;101693.28;5095209;28;20112;-40
2021/03/10 10:37:42;;;;;;;23.60;18.60;;;;;;;7.11;72.35;101693.38;5095136;28;20035;-40
2021/03/10 10:40:09;;;;;;;;;;;;;;;7.17;72.85;101698.00;5095223;28;20070;-40
2021/03/10 10:42:35;;;;;;;26.83;17.97;;;;;;;7.19;71.42;101702.19;5095045;28;19915;-40
2021/03/10 10:45:00;;;;;;;24.67;17.67;;;;;;;7.26;72.11;101701.41;5094676;28;20024;-40
2021/03/10 10:47:26;;;;;;;25.10;17.80;;;;;;;7.32;69.74;101696.13;5094633;28;20055;-40
2021/03/10 10:49:52;;;;;;;22.15;16.00;;;;;;;7.42;70.81;101690.44;5094601;28;20874;-40
2021/03/10 10:52:17;;;;;;;20.40;14.90;;;;;;;7.51;69.77;101686.59;5094807;28;20141;-40
2021/03/10 10:54:43;;;;;;;22.50;15.73;;;;;;;7.61;68.64;101675.53;5095372;28;20024;-40
2021/03/10 10:57:08;;;;;;;18.57;14.13;;;;;;;7.67;68.02;101666.69;5095243;28;20024;-40
2021/03/10 10:59:34;;;;;;;21.10;14.07;;;;;;;7.69;68.29;101667.31;5094781;28;20365;-41
2021/03/10 11:01:59;;;;;;;18.77;12.93;;;;;;;7.67;66.70;101654.06;5094347;28;20368;-41
2021/03/10 11:04:24;;;;;;;18.20;13.13;;;;;;;7.61;66.00;101660.22;5094903;28;20035;-40
2021/03/10 11:06:50;;;;;;;15.97;12.63;;;;;;;7.67;67.36;101656.75;5095111;28;20044;-40
2021/03/10 11:09:15;;;;;;;19.37;12.80;;;;;;;7.65;66.13;101657.97;5095176;28;20031;-40
2021/03/10 11:11:40;;;;;;;16.47;12.30;;;;;;;7.69;65.42;101652.00;5094395;28;20115;-40
2021/03/10 11:14:06;;;;;;;16.70;12.73;;;;;;;7.67;66.27;101647.84;5094823;28;20103;-41
2021/03/10 11:16:31;;;;;;;16.20;12.17;;;;;;;7.70;67.29;101640.22;5094348;28;20059;-40
2021/03/10 11:18:56;;;;;;;17.57;12.17;;;;;;;7.73;66.40;101633.63;5094927;28;20063;-41
2021/03/10 11:21:22;;;;;;;19.40;12.70;;;;;;;7.75;65.67;101636.94;5094518;28;20028;-41
2021/03/10 11:23:48;;;;;;;17.23;12.65;;;;;;;7.80;66.05;101622.91;5094894;28;20031;-40
2021/03/10 11:26:13;;;;;;;18.95;14.00;;;;;;;7.82;66.19;101619.00;5094843;28;20154;-41